Webcam Meteoipassi more information Webcam Meteoipassi


altri nostri siti meteo:

Pomeziameteo 1Sito sul meteo

MeteopomeziaSito sul meteo

Pomeziameteo DashboardSito sul meteo

Caput FrigorisSito sul meteo

BarcellonameteoSito sul meteo

ViterbometeoSito sul meteo

MeteotortoretoSito sul meteo

TortoretometeolidoSito sul meteo

MeteoGonzagaSito sul meteo



There is a communication problem. Go directly to the Meteoalarm site : www.meteoalarm.eu and check the Weather-warnings there .


Notice: Undefined offset: 6 in /web/htdocs/www.meteoipassi.it/home/weather28/metar/metarDisplay.php on line 75

Notice: Undefined offset: 5 in /web/htdocs/www.meteoipassi.it/home/weather28/metar/metarDisplay.php on line 75

Report METAR

   
LIRQ - Firenze
Dati ricevuti: Feb 28 2024 6:50 am
Molto nuvoloso  
Molto nuvoloso  
   Vento: SE 11.1 km/h
Vento: SE 11.1 km/h
Temperatura: 10°C
Temperatura Vento: 8°C
P.to Rugiada: 9°C
Umidita: 94%
Barometro: 1011 hPa
Nuvole: Molto nuvoloso
Visibilita: oltre 10 km
dettagli cloud: Poche nuvole 1219.2 m,
Molto nuvoloso 2438.4 m
LIRQ 280550Z 11006KT 9999 FEW040 BKN080 10/09 Q1011
LIRP - Lucca
Dati ricevuti: Feb 28 2024 6:15 am
Molto nuvoloso  
Molto nuvoloso  
   Vento: Oriente 9.3 km/h
Vento: Oriente 9.3 km/h
Temperatura: 13°C
P.to Rugiada: 10°C
Umidita: 82%
Barometro: 1010 hPa
Nuvole: Molto nuvoloso
Visibilita: oltre 10 km
dettagli cloud: Poche nuvole 1066.8 m,
Molto nuvoloso 2438.4 m
LIRP 280515Z 08005KT 9999 FEW035 BKN080 13/10 Q1010 NOSIG
LIPE - Bologna
Dati ricevuti: Feb 28 2024 6:50 am
Nebbia, Coperto  
Nebbia, Coperto  
   Vento: West 11.1 km/h
Vento: West 11.1 km/h
Temperatura: 10°C
Temperatura Vento: 8°C
P.to Rugiada: 10°C
Umidita: 100%
Barometro: 1013 hPa
Nuvole: Coperto
Visibilita: 0 km
dettagli cloud: Coperto 30.5 m
LIPE 280550Z 27006KT 0300 R12/1000N R30/1100D FG VV001 10/10 Q1013
LIMP - Parma
Dati ricevuti: Feb 27 2024 10:50 pm
DATI Obsoleti
Pioggia leggera, Molto nuvoloso  
Pioggia leggera, Molto nuvoloso  
   Vento: NE 11.1 km/h
Vento: NE 11.1 km/h
Temperatura: 10°C
Temperatura Vento: 8°C
P.to Rugiada: 10°C
Umidita: 100%
Barometro: 1010 hPa
Nuvole: Molto nuvoloso
Visibilita: 2 km
dettagli cloud: Molto nuvoloso 609.6 m
LIMP 272150Z 03006KT 2000 -RA BKN020 10/10 Q1010
  

Script sviluppato da  Saratoga-weather.org Adattato per il modello da  Weerstation Leuven

Potete trovare le nostre info meteo anche a:

European Weather Network

Weather Underground

AWEKAS

HAMweather, WeatherForYou, PWS Weather

Strumentazione usata:

Stazione meteo
Davis Vantage Vue

Programma gestore dati meteo
WVIEW

Server per i dati meteo
WDS-5

Provider
Anemos WDS-5

Davis Vantage Vue

WVIEW

WDS-5

Anemos WDS-5